DAL814 KMSP-KPIT
Flight info
| Callsign | DAL814 |
|---|---|
| Flight time | N/A |
| Altitude | 37000 |
| Route | COULT7 DLL J68 BAE J70 PMM TAMDE GRIVY JESEY5 |
| Aircraft | A321/M-SDE3FGHIRWY/LB1 |
Departure
| Time | N/A |
|---|---|
| Airport | Minneapolis–Saint Paul International Airport / Wold–Chamberlain Field (KMSP) |
Arrival
| Time | 2026-05-05 22:01 |
|---|---|
| Airport | Pittsburgh International Airport (KPIT) |
| Time | Latitude | Longitude | Altitude | Speed | Heading |
|---|---|---|---|---|---|
| 2026-05-05 21:22 | 42.15860 | -84.75228 | 36885 ft | 546 kts | 110° |
| 2026-05-05 21:22 | 42.14714 | -84.70353 | 36884 ft | 545 kts | 110° |
| 2026-05-05 21:22 | 42.12430 | -84.60624 | 36876 ft | 544 kts | 110° |
| 2026-05-05 21:23 | 42.10137 | -84.50904 | 36873 ft | 544 kts | 110° |
| 2026-05-05 21:23 | 42.07853 | -84.41283 | 36876 ft | 543 kts | 110° |
| 2026-05-05 21:24 | 42.05544 | -84.31609 | 36874 ft | 542 kts | 110° |
| 2026-05-05 21:24 | 42.03231 | -84.21962 | 36882 ft | 542 kts | 110° |
| 2026-05-05 21:25 | 42.00910 | -84.12323 | 36878 ft | 541 kts | 110° |
| 2026-05-05 21:25 | 41.98595 | -84.02712 | 36876 ft | 540 kts | 110° |
| 2026-05-05 21:26 | 41.96275 | -83.93143 | 36872 ft | 540 kts | 110° |
| 2026-05-05 21:26 | 41.93941 | -83.83564 | 36872 ft | 539 kts | 110° |
| 2026-05-05 21:27 | 41.91603 | -83.73986 | 36873 ft | 539 kts | 110° |
| 2026-05-05 21:27 | 41.89258 | -83.64425 | 36871 ft | 539 kts | 110° |
| 2026-05-05 21:28 | 41.86904 | -83.54874 | 36861 ft | 539 kts | 110° |
| 2026-05-05 21:28 | 41.84548 | -83.45350 | 36858 ft | 539 kts | 110° |
| 2026-05-05 21:29 | 41.82182 | -83.35823 | 36863 ft | 538 kts | 111° |
| 2026-05-05 21:29 | 41.79815 | -83.26339 | 36861 ft | 538 kts | 111° |
| 2026-05-05 21:30 | 41.78619 | -83.21559 | 36628 ft | 537 kts | 111° |
| 2026-05-05 21:30 | 41.77434 | -83.16825 | 36371 ft | 535 kts | 111° |
| 2026-05-05 21:30 | 41.76248 | -83.12103 | 36107 ft | 533 kts | 111° |
| 2026-05-05 21:30 | 41.75068 | -83.07414 | 35853 ft | 532 kts | 111° |
| 2026-05-05 21:31 | 41.73888 | -83.02731 | 35597 ft | 530 kts | 111° |
| 2026-05-05 21:31 | 41.72706 | -82.98058 | 35344 ft | 528 kts | 111° |
| 2026-05-05 21:31 | 41.71529 | -82.93413 | 35088 ft | 527 kts | 111° |
| 2026-05-05 21:31 | 41.70337 | -82.88718 | 34861 ft | 525 kts | 111° |
| 2026-05-05 21:32 | 41.69162 | -82.84104 | 34609 ft | 523 kts | 111° |
| 2026-05-05 21:32 | 41.67988 | -82.79502 | 34362 ft | 522 kts | 112° |
| 2026-05-05 21:32 | 41.66818 | -82.74914 | 34132 ft | 520 kts | 112° |
| 2026-05-05 21:32 | 41.65652 | -82.70351 | 33899 ft | 518 kts | 112° |
| 2026-05-05 21:33 | 41.63322 | -82.61275 | 33860 ft | 515 kts | 112° |
| 2026-05-05 21:33 | 41.60994 | -82.52235 | 33870 ft | 514 kts | 112° |
| 2026-05-05 21:34 | 41.58683 | -82.43263 | 33871 ft | 513 kts | 112° |
| 2026-05-05 21:34 | 41.56479 | -82.34763 | 33860 ft | 512 kts | 112° |
| 2026-05-05 21:35 | 41.54130 | -82.25744 | 33860 ft | 510 kts | 112° |
| 2026-05-05 21:35 | 41.51688 | -82.16879 | 33855 ft | 506 kts | 119° |
| 2026-05-05 21:36 | 41.48243 | -82.08808 | 33857 ft | 499 kts | 127° |
| 2026-05-05 21:36 | 41.44625 | -82.00921 | 33849 ft | 498 kts | 127° |
| 2026-05-05 21:37 | 41.42817 | -81.96981 | 33482 ft | 500 kts | 127° |
| 2026-05-05 21:37 | 41.40978 | -81.92987 | 32301 ft | 510 kts | 127° |
| 2026-05-05 21:37 | 41.39162 | -81.89033 | 31620 ft | 501 kts | 127° |
| 2026-05-05 21:37 | 41.37365 | -81.85094 | 30972 ft | 483 kts | 127° |
| 2026-05-05 21:38 | 41.35637 | -81.81315 | 30354 ft | 474 kts | 127° |
| 2026-05-05 21:38 | 41.33928 | -81.77598 | 29732 ft | 467 kts | 127° |
| 2026-05-05 21:38 | 41.32243 | -81.73941 | 29033 ft | 461 kts | 127° |
| 2026-05-05 21:38 | 41.30573 | -81.70327 | 28351 ft | 455 kts | 127° |
| 2026-05-05 21:39 | 41.28909 | -81.66738 | 27696 ft | 457 kts | 127° |
| 2026-05-05 21:39 | 41.27236 | -81.63144 | 27043 ft | 457 kts | 127° |
| 2026-05-05 21:39 | 41.25564 | -81.59558 | 26398 ft | 456 kts | 127° |
| 2026-05-05 21:39 | 41.23898 | -81.55983 | 25773 ft | 454 kts | 127° |
| 2026-05-05 21:40 | 41.22238 | -81.52418 | 25163 ft | 453 kts | 127° |
| 2026-05-05 21:40 | 41.20917 | -81.49586 | 24694 ft | 452 kts | 127° |
| 2026-05-05 21:40 | 41.19259 | -81.46037 | 24104 ft | 451 kts | 126° |
| 2026-05-05 21:40 | 41.17612 | -81.42506 | 23545 ft | 448 kts | 126° |
| 2026-05-05 21:41 | 41.15979 | -81.39001 | 22892 ft | 445 kts | 126° |
| 2026-05-05 21:41 | 41.14356 | -81.35520 | 22224 ft | 442 kts | 126° |
| 2026-05-05 21:41 | 41.12741 | -81.32063 | 21583 ft | 439 kts | 127° |
| 2026-05-05 21:41 | 41.11166 | -81.28701 | 20948 ft | 436 kts | 127° |
| 2026-05-05 21:42 | 41.09559 | -81.25268 | 20295 ft | 424 kts | 127° |
| 2026-05-05 21:42 | 41.08039 | -81.21966 | 19682 ft | 415 kts | 123° |
| 2026-05-05 21:42 | 41.06804 | -81.18550 | 19085 ft | 408 kts | 120° |
| 2026-05-05 21:42 | 41.05624 | -81.15166 | 18493 ft | 400 kts | 120° |
| 2026-05-05 21:43 | 41.04465 | -81.11849 | 17878 ft | 393 kts | 120° |
| 2026-05-05 21:43 | 41.03323 | -81.08597 | 17208 ft | 386 kts | 120° |
| 2026-05-05 21:43 | 41.02199 | -81.05403 | 16559 ft | 380 kts | 121° |
| 2026-05-05 21:43 | 41.01115 | -81.02331 | 15945 ft | 375 kts | 121° |
| 2026-05-05 21:44 | 40.99989 | -80.99143 | 15304 ft | 370 kts | 121° |
| 2026-05-05 21:44 | 40.98906 | -80.96076 | 14690 ft | 365 kts | 121° |
| 2026-05-05 21:44 | 40.97840 | -80.93056 | 14093 ft | 360 kts | 121° |
| 2026-05-05 21:44 | 40.96785 | -80.90066 | 13483 ft | 356 kts | 122° |
| 2026-05-05 21:45 | 40.95744 | -80.87128 | 12908 ft | 350 kts | 122° |
| 2026-05-05 21:45 | 40.94711 | -80.84211 | 12653 ft | 349 kts | 122° |
| 2026-05-05 21:45 | 40.93682 | -80.81317 | 12399 ft | 348 kts | 122° |
| 2026-05-05 21:45 | 40.92653 | -80.78428 | 12141 ft | 346 kts | 122° |
| 2026-05-05 21:46 | 40.91629 | -80.75554 | 11890 ft | 345 kts | 121° |
| 2026-05-05 21:46 | 40.90607 | -80.72689 | 11638 ft | 344 kts | 121° |
| 2026-05-05 21:46 | 40.89586 | -80.69828 | 11390 ft | 343 kts | 121° |
| 2026-05-05 21:46 | 40.88570 | -80.66984 | 11144 ft | 341 kts | 122° |
| 2026-05-05 21:47 | 40.87346 | -80.64349 | 10987 ft | 332 kts | 135° |
| 2026-05-05 21:47 | 40.85786 | -80.62132 | 10606 ft | 327 kts | 145° |
| 2026-05-05 21:47 | 40.84099 | -80.60141 | 10253 ft | 323 kts | 145° |
| 2026-05-05 21:47 | 40.82457 | -80.58203 | 10135 ft | 311 kts | 145° |
| 2026-05-05 21:48 | 40.80875 | -80.56331 | 9964 ft | 302 kts | 145° |
| 2026-05-05 21:48 | 40.79325 | -80.54501 | 9788 ft | 297 kts | 145° |
| 2026-05-05 21:48 | 40.77783 | -80.52690 | 9558 ft | 296 kts | 145° |
| 2026-05-05 21:48 | 40.76246 | -80.50883 | 9319 ft | 295 kts | 146° |
| 2026-05-05 21:49 | 40.74719 | -80.49092 | 9083 ft | 293 kts | 145° |
| 2026-05-05 21:49 | 40.73192 | -80.47309 | 8849 ft | 292 kts | 146° |
| 2026-05-05 21:49 | 40.71667 | -80.45559 | 8617 ft | 290 kts | 146° |
| 2026-05-05 21:49 | 40.70149 | -80.43832 | 8383 ft | 288 kts | 147° |
| 2026-05-05 21:50 | 40.68638 | -80.42117 | 8148 ft | 285 kts | 147° |
| 2026-05-05 21:50 | 40.67140 | -80.40415 | 7928 ft | 284 kts | 147° |
| 2026-05-05 21:50 | 40.65675 | -80.38755 | 7699 ft | 282 kts | 147° |
| 2026-05-05 21:50 | 40.64166 | -80.37046 | 7454 ft | 280 kts | 147° |
| 2026-05-05 21:51 | 40.62691 | -80.35373 | 7237 ft | 281 kts | 147° |
| 2026-05-05 21:51 | 40.61210 | -80.33696 | 7015 ft | 280 kts | 147° |
| 2026-05-05 21:51 | 40.59839 | -80.31866 | 6785 ft | 285 kts | 134° |
| 2026-05-05 21:51 | 40.58875 | -80.29555 | 6552 ft | 293 kts | 117° |
| 2026-05-05 21:52 | 40.58360 | -80.24130 | 6058 ft | 302 kts | 97° |
| 2026-05-05 21:52 | 40.58265 | -80.21365 | 5813 ft | 300 kts | 98° |
| 2026-05-05 21:52 | 40.58166 | -80.18622 | 5369 ft | 302 kts | 97° |
| 2026-05-05 21:53 | 40.58065 | -80.15847 | 4874 ft | 304 kts | 97° |
| 2026-05-05 21:53 | 40.57964 | -80.13066 | 4366 ft | 306 kts | 97° |
| 2026-05-05 21:53 | 40.57865 | -80.10298 | 3865 ft | 297 kts | 96° |
| 2026-05-05 21:53 | 40.57774 | -80.07636 | 3364 ft | 288 kts | 96° |
| 2026-05-05 21:54 | 40.57686 | -80.05081 | 3048 ft | 269 kts | 96° |
| 2026-05-05 21:54 | 40.57606 | -80.02720 | 2993 ft | 248 kts | 96° |
| 2026-05-05 21:54 | 40.57407 | -80.00490 | 2998 ft | 242 kts | 115° |
| 2026-05-05 21:54 | 40.56563 | -79.98681 | 3037 ft | 230 kts | 137° |
| 2026-05-05 21:55 | 40.55482 | -79.97147 | 3005 ft | 227 kts | 140° |
| 2026-05-05 21:55 | 40.54736 | -79.96183 | 3000 ft | 225 kts | 147° |
| 2026-05-05 21:55 | 40.53371 | -79.95389 | 3005 ft | 213 kts | 175° |
| 2026-05-05 21:55 | 40.51913 | -79.95132 | 3009 ft | 210 kts | 180° |
| 2026-05-05 21:56 | 40.50489 | -79.95249 | 3004 ft | 203 kts | 205° |
| 2026-05-05 21:56 | 40.49350 | -79.96292 | 3012 ft | 199 kts | 226° |
| 2026-05-05 21:56 | 40.48535 | -79.97740 | 2991 ft | 197 kts | 242° |
| 2026-05-05 21:56 | 40.48079 | -79.99440 | 3001 ft | 200 kts | 257° |
| 2026-05-05 21:57 | 40.48019 | -80.01248 | 2996 ft | 195 kts | 269° |
| 2026-05-05 21:57 | 40.48070 | -80.03001 | 2998 ft | 189 kts | 268° |
| 2026-05-05 21:57 | 40.48116 | -80.04726 | 3008 ft | 189 kts | 268° |
| 2026-05-05 21:57 | 40.48164 | -80.06450 | 3001 ft | 189 kts | 267° |
| 2026-05-05 21:58 | 40.48212 | -80.08091 | 2962 ft | 167 kts | 268° |
| 2026-05-05 21:58 | 40.48253 | -80.09534 | 2830 ft | 151 kts | 267° |
| 2026-05-05 21:58 | 40.48289 | -80.10878 | 2655 ft | 146 kts | 267° |
| 2026-05-05 21:58 | 40.48324 | -80.12221 | 2492 ft | 148 kts | 268° |
| 2026-05-05 21:59 | 40.48360 | -80.13530 | 2302 ft | 141 kts | 268° |
| 2026-05-05 21:59 | 40.48394 | -80.14777 | 2128 ft | 138 kts | 267° |
| 2026-05-05 21:59 | 40.48429 | -80.16041 | 1949 ft | 132 kts | 267° |
| 2026-05-05 21:59 | 40.48461 | -80.17257 | 1741 ft | 135 kts | 269° |
| 2026-05-05 22:00 | 40.48495 | -80.18480 | 1535 ft | 133 kts | 269° |
| 2026-05-05 22:00 | 40.48544 | -80.19706 | 1404 ft | 134 kts | 267° |
| 2026-05-05 22:00 | 40.48569 | -80.20938 | 1199 ft | 134 kts | 268° |
| 2026-05-05 22:00 | 40.48589 | -80.22082 | 1132 ft | 104 kts | 273° |
| 2026-05-05 22:01 | 40.48608 | -80.22769 | 1140 ft | 51 kts | 270° |
| 2026-05-05 22:01 | 40.48656 | -80.23113 | 1140 ft | 32 kts | 301° |
| 2026-05-05 22:01 | 40.48772 | -80.23355 | 1139 ft | 30 kts | 304° |
| 2026-05-05 22:01 | 40.48795 | -80.23569 | 1138 ft | 23 kts | 272° |
| 2026-05-05 22:02 | 40.48803 | -80.23765 | 1141 ft | 21 kts | 271° |
| 2026-05-05 22:02 | 40.48802 | -80.23948 | 1143 ft | 19 kts | 276° |
| 2026-05-05 22:02 | 40.48865 | -80.23999 | 1148 ft | 7 kts | 1° |
| 2026-05-05 22:02 | 40.48928 | -80.24003 | 1147 ft | 14 kts | 0° |
| 2026-05-05 22:03 | 40.49035 | -80.23997 | 1151 ft | 14 kts | 1° |
| 2026-05-05 22:03 | 40.49140 | -80.23994 | 1150 ft | 20 kts | 2° |
| 2026-05-05 22:03 | 40.49319 | -80.23984 | 1151 ft | 25 kts | 2° |
| 2026-05-05 22:03 | 40.49472 | -80.23979 | 1161 ft | 20 kts | 3° |
| 2026-05-05 22:04 | 40.49614 | -80.23973 | 1169 ft | 18 kts | 2° |
| 2026-05-05 22:04 | 40.49734 | -80.23967 | 1176 ft | 15 kts | 1° |
| 2026-05-05 22:04 | 40.49832 | -80.23964 | 1185 ft | 16 kts | 1° |
| 2026-05-05 22:04 | 40.49902 | -80.24011 | 1187 ft | 11 kts | 272° |
| 2026-05-05 22:05 | 40.49908 | -80.24113 | 1188 ft | 14 kts | 274° |
| 2026-05-05 22:05 | 40.49914 | -80.24307 | 1189 ft | 23 kts | 271° |
| 2026-05-05 22:05 | 40.49823 | -80.24480 | 1183 ft | 26 kts | 228° |
| 2026-05-05 22:05 | 40.49788 | -80.24663 | 1176 ft | 18 kts | 298° |
| 2026-05-05 22:06 | 40.49862 | -80.24757 | 1185 ft | 8 kts | 300° |
| 2026-05-05 22:06 | 40.49861 | -80.24779 | 1185 ft | 4 kts | 254° |
| 2026-05-05 22:06 | 40.49838 | -80.24813 | 1183 ft | 5 kts | 221° |
| 2026-05-05 22:06 | 40.49828 | -80.24827 | 1183 ft | 0 kts | 226° |